Time;durP1;ratioP1;P1;durP2;ratioP2;P2;SDS_P1;SDS_P2;PMS_P1;PMS_P2;Temp;Humidity;BMP_temperature;BMP_pressure;BME280_temperature;BME280_humidity;BME280_pressure;Samples;Min_cycle;Max_cycle;Signal;HPM_P1;HPM_P2
2021/06/30 00:02:25;;;;;;;5.35;3.22;;;24.20;60.80;;;;;;5032945;28;20030;-67
2021/06/30 00:04:51;;;;;;;5.28;3.38;;;24.20;60.90;;;;;;5033147;28;20048;-67
2021/06/30 00:07:17;;;;;;;5.50;3.38;;;24.20;60.80;;;;;;5033057;28;20018;-67
2021/06/30 00:09:43;;;;;;;7.13;3.55;;;24.20;60.80;;;;;;5035437;28;20502;-67
2021/06/30 00:12:09;;;;;;;4.95;3.17;;;24.20;60.80;;;;;;5037201;28;20116;-67
2021/06/30 00:14:35;;;;;;;6.00;3.33;;;24.20;60.70;;;;;;5037408;28;20056;-67
2021/06/30 00:17:00;;;;;;;5.63;3.35;;;24.20;60.80;;;;;;5037082;28;20026;-67
2021/06/30 00:19:28;;;;;;;5.57;3.38;;;24.20;60.70;;;;;;5036847;28;20026;-67
2021/06/30 00:21:54;;;;;;;5.82;3.38;;;24.20;60.60;;;;;;5036707;28;20382;-67
2021/06/30 00:24:21;;;;;;;5.22;3.20;;;24.20;60.50;;;;;;5037134;28;20029;-67
2021/06/30 00:26:46;;;;;;;5.68;3.10;;;24.20;60.50;;;;;;5036978;28;20052;-67
2021/06/30 00:29:12;;;;;;;5.07;3.30;;;24.20;60.50;;;;;;5036663;28;20030;-67
2021/06/30 00:31:37;;;;;;;4.82;2.90;;;24.20;60.50;;;;;;5037066;28;20149;-67
2021/06/30 00:34:04;;;;;;;4.63;2.95;;;24.20;60.60;;;;;;5036650;28;20055;-67
2021/06/30 00:36:43;;;;;;;5.80;3.47;;;24.10;60.70;;;;;;5036691;28;20025;-67
2021/06/30 00:39:08;;;;;;;4.82;3.17;;;24.10;60.80;;;;;;5036588;28;20032;-67
2021/06/30 00:41:34;;;;;;;6.82;3.67;;;24.10;60.70;;;;;;5036914;28;20025;-67
2021/06/30 00:44:00;;;;;;;5.20;3.22;;;24.10;60.60;;;;;;5036605;28;20042;-67
2021/06/30 00:46:30;;;;;;;5.68;3.40;;;24.00;60.80;;;;;;5036293;28;20086;-67
2021/06/30 00:48:56;;;;;;;5.20;3.38;;;24.10;60.80;;;;;;5036430;28;20067;-67
2021/06/30 00:51:23;;;;;;;5.97;3.58;;;24.10;60.80;;;;;;5036547;28;20026;-67
2021/06/30 00:53:48;;;;;;;5.30;3.35;;;24.10;60.80;;;;;;5036429;28;20036;-67
2021/06/30 00:56:14;;;;;;;5.25;3.50;;;24.00;60.80;;;;;;5036417;28;20116;-67
2021/06/30 00:58:40;;;;;;;5.75;3.30;;;24.10;60.70;;;;;;5036371;28;20033;-67
2021/06/30 01:01:06;;;;;;;5.20;3.45;;;24.10;60.80;;;;;;5036428;28;20060;-67
2021/06/30 01:03:32;;;;;;;5.82;3.50;;;24.00;60.90;;;;;;5036220;28;20108;-67
2021/06/30 01:05:57;;;;;;;5.93;3.60;;;24.00;60.90;;;;;;5036505;28;20061;-67
2021/06/30 01:08:23;;;;;;;5.47;3.60;;;24.00;60.90;;;;;;5036130;28;20495;-67
2021/06/30 01:10:48;;;;;;;5.88;3.35;;;24.00;60.90;;;;;;5036287;28;20080;-67
2021/06/30 01:13:14;;;;;;;5.93;3.42;;;24.00;61.00;;;;;;5036256;28;20425;-67
2021/06/30 01:15:54;;;;;;;6.38;3.90;;;24.00;60.90;;;;;;5036168;28;20355;-67
2021/06/30 01:18:29;;;;;;;5.60;3.58;;;24.00;60.90;;;;;;5036227;28;20427;-67
2021/06/30 01:20:56;;;;;;;5.80;3.58;;;24.00;60.90;;;;;;5035965;28;20021;-67
2021/06/30 01:23:22;;;;;;;5.93;3.70;;;24.00;61.00;;;;;;5036871;28;20116;-67
2021/06/30 01:25:48;;;;;;;6.15;3.70;;;24.00;60.90;;;;;;5047959;28;20022;-67
2021/06/30 01:28:16;;;;;;;6.05;3.50;;;24.00;60.80;;;;;;5037612;28;20017;-67
2021/06/30 01:30:43;;;;;;;6.03;3.60;;;24.00;60.70;;;;;;5035820;28;20029;-67
2021/06/30 01:33:08;;;;;;;5.93;3.63;;;24.00;60.70;;;;;;5035845;28;20378;-67
2021/06/30 01:35:34;;;;;;;6.47;3.83;;;23.90;60.80;;;;;;5035699;28;20029;-67
2021/06/30 01:38:01;;;;;;;6.43;3.40;;;24.00;60.70;;;;;;5035721;28;20075;-67
2021/06/30 01:40:27;;;;;;;5.25;3.38;;;23.90;60.80;;;;;;5035749;28;20036;-67
2021/06/30 01:42:55;;;;;;;6.05;3.80;;;23.90;60.80;;;;;;5035562;28;20381;-67
2021/06/30 01:45:21;;;;;;;5.63;3.40;;;23.90;60.80;;;;;;5043146;28;20037;-67
2021/06/30 01:47:47;;;;;;;6.35;4.07;;;23.90;60.80;;;;;;5046132;28;20385;-67
2021/06/30 01:50:13;;;;;;;6.55;3.72;;;23.90;60.90;;;;;;5046668;28;20068;-67
2021/06/30 01:52:40;;;;;;;6.55;4.07;;;23.90;60.90;;;;;;5036056;28;20378;-67
2021/06/30 01:55:06;;;;;;;5.93;3.45;;;23.90;60.80;;;;;;5035664;28;20032;-67
2021/06/30 01:57:32;;;;;;;5.43;3.50;;;23.90;60.80;;;;;;5035801;28;20053;-67
2021/06/30 01:59:57;;;;;;;6.22;4.05;;;23.90;60.70;;;;;;5035828;28;20083;-67
2021/06/30 02:02:28;;;;;;;5.88;3.50;;;23.90;60.80;;;;;;5035771;28;20095;-67
2021/06/30 02:05:01;;;;;;;7.38;4.30;;;23.90;60.80;;;;;;5035370;28;20044;-67
2021/06/30 02:07:27;;;;;;;6.15;3.78;;;23.90;60.80;;;;;;5035380;28;20049;-67
2021/06/30 02:09:52;;;;;;;6.00;3.78;;;23.90;60.80;;;;;;5035496;28;20570;-67
2021/06/30 02:12:18;;;;;;;6.35;3.70;;;23.90;60.80;;;;;;5035214;28;20028;-67
2021/06/30 02:14:43;;;;;;;6.10;3.72;;;23.80;60.80;;;;;;5035223;28;20101;-67
2021/06/30 02:17:09;;;;;;;5.88;3.60;;;23.80;60.90;;;;;;5035113;28;20036;-67
2021/06/30 02:19:34;;;;;;;6.55;3.92;;;23.80;60.90;;;;;;5034900;28;20065;-67
2021/06/30 02:22:00;;;;;;;6.75;4.20;;;23.80;60.90;;;;;;5034882;28;20048;-67
2021/06/30 02:24:25;;;;;;;6.15;4.15;;;23.80;61.00;;;;;;5034751;28;20091;-67
2021/06/30 02:26:51;;;;;;;5.68;3.75;;;23.80;61.00;;;;;;5034753;28;20079;-67
2021/06/30 02:29:16;;;;;;;6.00;3.60;;;23.80;61.00;;;;;;5034687;28;20030;-67
2021/06/30 02:31:42;;;;;;;6.85;4.25;;;23.80;61.00;;;;;;5033935;28;20086;-67
2021/06/30 02:34:08;;;;;;;6.20;4.03;;;23.80;60.90;;;;;;5034778;28;20022;-67
2021/06/30 02:36:33;;;;;;;6.95;4.00;;;23.80;61.00;;;;;;5016681;28;20035;-67
2021/06/30 02:38:59;;;;;;;7.15;4.63;;;23.80;61.00;;;;;;5034487;28;20051;-67
2021/06/30 02:41:24;;;;;;;6.60;4.32;;;23.80;61.00;;;;;;5034719;28;20037;-67
2021/06/30 02:43:50;;;;;;;5.68;3.78;;;23.70;61.00;;;;;;5034226;28;20504;-67
2021/06/30 02:46:16;;;;;;;5.72;3.78;;;23.70;61.00;;;;;;5033869;28;20060;-67
2021/06/30 02:48:41;;;;;;;6.45;4.15;;;23.80;61.00;;;;;;5034171;28;20033;-67
2021/06/30 02:51:07;;;;;;;7.15;4.47;;;23.80;60.90;;;;;;5034250;28;20099;-67
2021/06/30 02:53:33;;;;;;;8.23;4.45;;;23.70;60.90;;;;;;5033974;28;20033;-67
2021/06/30 02:56:01;;;;;;;7.95;4.70;;;23.80;60.90;;;;;;5034078;28;20112;-67
2021/06/30 02:58:27;;;;;;;6.38;4.45;;;23.80;60.90;;;;;;5034024;28;20025;-67
2021/06/30 03:00:53;;;;;;;6.80;4.18;;;23.80;60.90;;;;;;5033903;28;20025;-67
2021/06/30 03:03:18;;;;;;;6.68;4.40;;;23.70;61.10;;;;;;5033797;28;20022;-67
2021/06/30 03:05:44;;;;;;;6.13;4.07;;;23.70;61.10;;;;;;5016138;28;20029;-67
2021/06/30 03:08:09;;;;;;;7.40;4.50;;;23.70;61.10;;;;;;5033799;28;20017;-67
2021/06/30 03:10:35;;;;;;;6.38;4.30;;;23.70;61.00;;;;;;5033786;28;20519;-67
2021/06/30 03:13:01;;;;;;;7.22;4.43;;;23.70;61.10;;;;;;5033822;28;20021;-67
2021/06/30 03:15:26;;;;;;;6.82;4.72;;;23.70;61.00;;;;;;5033613;28;20624;-67
2021/06/30 03:17:52;;;;;;;7.25;4.18;;;23.70;61.00;;;;;;5033656;28;20025;-67
2021/06/30 03:20:18;;;;;;;7.30;4.95;;;23.70;61.00;;;;;;5033618;28;20095;-67
2021/06/30 03:22:43;;;;;;;6.90;4.45;;;23.60;61.10;;;;;;5033551;28;20096;-67
2021/06/30 03:25:11;;;;;;;6.88;4.80;;;23.70;61.00;;;;;;5033536;28;20363;-67
2021/06/30 03:27:37;;;;;;;7.55;4.82;;;23.70;61.10;;;;;;5033497;28;20022;-67
2021/06/30 03:30:05;;;;;;;6.65;4.32;;;23.60;61.00;;;;;;5033564;28;20029;-67
2021/06/30 03:32:31;;;;;;;6.60;4.30;;;23.60;61.10;;;;;;5033745;28;20029;-67
2021/06/30 03:34:56;;;;;;;8.77;4.93;;;23.60;61.10;;;;;;5033222;28;20032;-67
2021/06/30 03:37:22;;;;;;;7.22;4.75;;;23.60;61.10;;;;;;5033323;28;20060;-67
2021/06/30 03:39:47;;;;;;;7.57;5.18;;;23.70;61.10;;;;;;5033304;28;20501;-67
2021/06/30 03:42:13;;;;;;;6.85;4.32;;;23.60;61.00;;;;;;5033168;28;20049;-67
2021/06/30 03:44:38;;;;;;;6.53;4.60;;;23.60;61.00;;;;;;5031955;28;20044;-67
2021/06/30 03:47:04;;;;;;;7.20;4.32;;;23.60;61.00;;;;;;5033440;28;20040;-67
2021/06/30 03:49:29;;;;;;;7.53;5.05;;;23.60;61.00;;;;;;5033275;28;20101;-67
2021/06/30 03:51:55;;;;;;;7.43;4.80;;;23.60;61.00;;;;;;5033115;28;20032;-67
2021/06/30 03:54:25;;;;;;;6.72;4.22;;;23.60;61.10;;;;;;5032938;28;20025;-67
2021/06/30 03:56:51;;;;;;;6.95;4.75;;;23.60;61.00;;;;;;5033042;28;20034;-67
2021/06/30 03:59:17;;;;;;;7.15;4.55;;;23.60;61.10;;;;;;5032992;28;20386;-67
2021/06/30 04:01:43;;;;;;;7.65;4.95;;;23.50;61.10;;;;;;5032953;28;20029;-67
2021/06/30 04:04:12;;;;;;;7.32;4.75;;;23.50;61.10;;;;;;5032927;28;20044;-67
2021/06/30 04:06:38;;;;;;;7.20;4.90;;;23.50;61.10;;;;;;5032969;28;20480;-67
2021/06/30 04:09:04;;;;;;;6.97;4.47;;;23.50;61.10;;;;;;5032970;28;20108;-67
2021/06/30 04:11:30;;;;;;;7.40;4.93;;;23.50;61.10;;;;;;5015519;28;20097;-67
2021/06/30 04:13:55;;;;;;;6.25;4.00;;;23.50;61.10;;;;;;5033021;28;20105;-67
2021/06/30 04:16:21;;;;;;;6.88;4.60;;;23.50;61.10;;;;;;5032964;28;20025;-67
2021/06/30 04:18:47;;;;;;;7.93;5.28;;;23.50;61.20;;;;;;5032803;28;20080;-67
2021/06/30 04:21:12;;;;;;;6.85;4.63;;;23.50;61.10;;;;;;5032784;28;20465;-67
2021/06/30 04:23:38;;;;;;;7.57;4.68;;;23.50;61.20;;;;;;5032793;28;20355;-67
2021/06/30 04:26:04;;;;;;;6.78;4.53;;;23.50;61.10;;;;;;5032867;28;20034;-67
2021/06/30 04:28:30;;;;;;;7.22;4.47;;;23.50;61.00;;;;;;5032605;28;20018;-67
2021/06/30 04:30:55;;;;;;;6.68;4.45;;;23.50;61.10;;;;;;5032815;28;20026;-67
2021/06/30 04:33:21;;;;;;;7.90;5.03;;;23.50;61.10;;;;;;5032798;28;20355;-67
2021/06/30 04:35:47;;;;;;;7.35;4.78;;;23.50;61.10;;;;;;5032730;28;20036;-67
2021/06/30 04:38:13;;;;;;;7.80;4.78;;;23.50;61.20;;;;;;5032764;28;20033;-67
2021/06/30 04:40:38;;;;;;;7.55;4.75;;;23.50;61.10;;;;;;5032537;28;20025;-67
2021/06/30 04:43:04;;;;;;;6.65;4.28;;;23.50;61.10;;;;;;5032756;28;20117;-67
2021/06/30 04:45:30;;;;;;;6.80;4.70;;;23.50;61.10;;;;;;5032469;28;20085;-67
2021/06/30 04:47:55;;;;;;;6.75;4.50;;;23.50;61.10;;;;;;5032657;28;20374;-67
2021/06/30 04:50:21;;;;;;;7.38;4.80;;;23.50;61.20;;;;;;5032628;28;20420;-67
2021/06/30 04:52:47;;;;;;;7.20;4.53;;;23.50;61.10;;;;;;5032885;28;20022;-67
2021/06/30 04:55:13;;;;;;;8.00;4.65;;;23.50;61.10;;;;;;5033997;28;20096;-67
2021/06/30 04:57:38;;;;;;;6.97;4.88;;;23.50;61.10;;;;;;5036322;28;20045;-67
2021/06/30 05:00:07;;;;;;;7.60;4.80;;;23.50;61.10;;;;;;5036311;28;20415;-67
2021/06/30 05:02:32;;;;;;;7.13;4.60;;;23.50;61.10;;;;;;5036064;28;20032;-67
2021/06/30 05:04:58;;;;;;;7.32;4.43;;;23.50;61.20;;;;;;5036143;28;20029;-67
2021/06/30 05:07:23;;;;;;;6.60;4.57;;;23.50;61.10;;;;;;5038676;28;20554;-67
2021/06/30 05:09:49;;;;;;;6.85;5.00;;;23.40;61.10;;;;;;5038104;28;20021;-67
2021/06/30 05:12:14;;;;;;;7.57;4.68;;;23.50;61.10;;;;;;5036389;28;20030;-67
2021/06/30 05:14:40;;;;;;;6.70;4.50;;;23.50;61.10;;;;;;5035998;28;20021;-67
2021/06/30 05:17:05;;;;;;;7.28;4.90;;;23.40;61.10;;;;;;5036029;28;20104;-67
2021/06/30 05:19:31;;;;;;;7.43;4.80;;;23.40;61.20;;;;;;5036011;28;20075;-67
2021/06/30 05:21:57;;;;;;;7.03;4.50;;;23.40;61.20;;;;;;5036120;28;20036;-67
2021/06/30 05:24:25;;;;;;;6.95;4.65;;;23.40;61.10;;;;;;5041968;28;20037;-67
2021/06/30 05:26:51;;;;;;;6.68;4.13;;;23.40;61.10;;;;;;5035657;28;20014;-67
2021/06/30 05:29:17;;;;;;;6.85;4.45;;;23.50;61.10;;;;;;5035764;28;20493;-67
2021/06/30 05:31:43;;;;;;;6.90;4.78;;;23.40;61.10;;;;;;5035600;28;20053;-67
2021/06/30 05:34:08;;;;;;;7.35;4.97;;;23.50;61.10;;;;;;5035882;28;20059;-67
2021/06/30 05:36:34;;;;;;;5.72;3.80;;;23.40;61.10;;;;;;5035895;28;20533;-67
2021/06/30 05:38:59;;;;;;;6.57;4.22;;;23.40;61.10;;;;;;5035474;28;20151;-67
2021/06/30 05:41:25;;;;;;;7.50;4.85;;;23.40;61.10;;;;;;5035470;28;20029;-67
2021/06/30 05:43:51;;;;;;;6.88;4.50;;;23.40;61.20;;;;;;5035431;28;20041;-67
2021/06/30 05:46:18;;;;;;;7.15;4.78;;;23.40;61.10;;;;;;5035333;28;20183;-67
2021/06/30 05:48:44;;;;;;;6.80;4.40;;;23.40;61.10;;;;;;5035613;28;20033;-67
2021/06/30 05:51:11;;;;;;;6.55;3.97;;;23.40;61.10;;;;;;5035607;28;20099;-67
2021/06/30 05:53:37;;;;;;;7.05;4.35;;;23.30;61.20;;;;;;5035272;28;20021;-67
2021/06/30 05:56:03;;;;;;;7.35;4.57;;;23.40;61.20;;;;;;5017900;28;20060;-67
2021/06/30 05:58:29;;;;;;;6.63;5.00;;;23.40;61.10;;;;;;5038466;28;20022;-69
2021/06/30 06:00:54;;;;;;;8.32;5.20;;;23.40;61.10;;;;;;5046207;28;20549;-68
2021/06/30 06:03:20;;;;;;;6.47;3.90;;;23.40;61.10;;;;;;5045819;28;20067;-70
2021/06/30 06:05:45;;;;;;;7.15;4.50;;;23.40;61.10;;;;;;5045403;28;20058;-67
2021/06/30 06:08:11;;;;;;;6.20;4.03;;;23.30;61.20;;;;;;5045624;28;20021;-69
2021/06/30 06:10:37;;;;;;;7.07;4.53;;;23.30;61.10;;;;;;5048253;28;20029;-67
2021/06/30 06:13:03;;;;;;;6.43;4.20;;;23.30;61.10;;;;;;5045368;28;20090;-67
2021/06/30 06:15:28;;;;;;;7.35;4.57;;;23.40;61.10;;;;;;5045130;28;20068;-67
2021/06/30 06:17:54;;;;;;;7.07;4.45;;;23.40;61.10;;;;;;5045010;28;20022;-67
2021/06/30 06:20:19;;;;;;;9.27;5.00;;;23.40;61.00;;;;;;5041019;28;20045;-66
2021/06/30 06:22:45;;;;;;;8.70;5.90;;;23.40;61.30;;;;;;5025159;28;20046;-66
2021/06/30 06:25:11;;;;;;;9.95;5.63;;;22.50;63.70;;;;;;5015864;28;20045;-67
2021/06/30 06:27:38;;;;;;;9.43;5.28;;;22.00;65.30;;;;;;5033213;28;20014;-67
2021/06/30 06:30:06;;;;;;;9.75;5.68;;;21.90;65.50;;;;;;5027523;28;20048;-67
2021/06/30 06:32:32;;;;;;;14.15;5.18;;;21.90;65.60;;;;;;5040208;28;20485;-66
2021/06/30 06:34:57;;;;;;;7.75;4.75;;;21.80;65.70;;;;;;5040458;28;20029;-66
2021/06/30 06:37:23;;;;;;;12.15;4.78;;;21.70;65.80;;;;;;5027469;28;20389;-66
2021/06/30 06:39:49;;;;;;;12.50;4.93;;;21.50;66.40;;;;;;5027508;28;20187;-67
2021/06/30 06:42:14;;;;;;;8.77;4.05;;;21.60;65.90;;;;;;5036576;28;20029;-67
2021/06/30 06:44:41;;;;;;;9.50;4.38;;;21.50;66.50;;;;;;5038455;28;20037;-67
2021/06/30 06:47:07;;;;;;;8.68;4.03;;;21.50;66.50;;;;;;5031994;28;20032;-67
2021/06/30 06:49:32;;;;;;;9.52;4.05;;;21.30;66.60;;;;;;5031512;28;20037;-66
2021/06/30 06:51:59;;;;;;;6.30;3.05;;;21.40;66.60;;;;;;5031558;28;20083;-66
2021/06/30 06:54:25;;;;;;;6.43;2.92;;;21.20;67.10;;;;;;5021869;28;20030;-65
2021/06/30 06:56:51;;;;;;;6.97;3.33;;;21.20;67.30;;;;;;5023514;28;20543;-65
2021/06/30 06:59:16;;;;;;;6.97;3.15;;;21.40;66.80;;;;;;5029288;28;20036;-66
2021/06/30 07:01:42;;;;;;;8.45;2.78;;;21.40;66.60;;;;;;5027959;28;20033;-67
2021/06/30 07:04:07;;;;;;;5.88;2.60;;;21.40;66.80;;;;;;5031279;28;20033;-67
2021/06/30 07:06:33;;;;;;;5.88;2.80;;;21.50;66.50;;;;;;5030392;28;20026;-68
2021/06/30 07:08:58;;;;;;;9.43;4.00;;;21.30;66.90;;;;;;5031531;28;20071;-66
2021/06/30 07:11:24;;;;;;;5.85;2.47;;;21.10;67.40;;;;;;5028837;28;20450;-67
2021/06/30 07:13:49;;;;;;;6.43;2.55;;;21.20;67.40;;;;;;5030072;28;20021;-66
2021/06/30 07:16:15;;;;;;;7.15;2.40;;;21.30;67.40;;;;;;5031004;28;20555;-65
2021/06/30 07:18:41;;;;;;;5.45;2.72;;;21.30;67.40;;;;;;5031339;28;20033;-66
2021/06/30 07:21:08;;;;;;;5.95;2.38;;;21.10;68.20;;;;;;5030675;28;20026;-67
2021/06/30 07:23:34;;;;;;;6.10;2.90;;;21.30;68.40;;;;;;5025777;28;20026;-66
2021/06/30 07:26:00;;;;;;;8.07;2.45;;;21.10;69.30;;;;;;5030438;28;20063;-66
2021/06/30 07:28:26;;;;;;;5.53;2.75;;;21.10;69.10;;;;;;5029282;28;20021;-67
2021/06/30 07:30:52;;;;;;;5.85;2.97;;;21.10;69.40;;;;;;5022718;28;20033;-67
2021/06/30 07:33:17;;;;;;;8.20;2.67;;;21.00;70.10;;;;;;5029371;28;20121;-67
2021/06/30 07:35:43;;;;;;;3.75;2.05;;;21.20;69.10;;;;;;5028324;28;20022;-67
2021/06/30 07:38:09;;;;;;;6.60;2.70;;;21.20;68.70;;;;;;5029439;28;20029;-66
2021/06/30 07:40:35;;;;;;;6.20;2.10;;;21.10;68.90;;;;;;5029960;28;20033;-64
2021/06/30 07:43:01;;;;;;;5.50;2.35;;;21.10;69.00;;;;;;5026848;28;20084;-68
2021/06/30 07:45:27;;;;;;;7.32;2.70;;;21.10;69.40;;;;;;5030058;28;20045;-68
2021/06/30 07:47:53;;;;;;;8.40;2.78;;;20.80;70.10;;;;;;5028809;28;20034;-68
2021/06/30 07:50:19;;;;;;;8.05;2.60;;;20.90;69.80;;;;;;5028681;28;20053;-67
2021/06/30 07:52:48;;;;;;;4.32;2.55;;;21.00;69.60;;;;;;5007980;28;20076;-68
2021/06/30 07:55:14;;;;;;;7.05;2.90;;;21.20;68.90;;;;;;5027040;28;20094;-66
2021/06/30 07:57:39;;;;;;;4.80;2.20;;;21.40;68.30;;;;;;5009078;28;20029;-66
2021/06/30 08:00:06;;;;;;;5.05;2.20;;;21.50;67.90;;;;;;5028894;28;20029;-66
2021/06/30 08:02:36;;;;;;;5.03;2.20;;;21.50;67.80;;;;;;5025235;28;20033;-65
2021/06/30 08:05:03;;;;;;;4.72;2.28;;;21.60;67.40;;;;;;5024297;28;20041;-65
2021/06/30 08:07:29;;;;;;;5.35;2.60;;;21.60;67.90;;;;;;5029078;28;20034;-66
2021/06/30 08:09:54;;;;;;;3.00;1.83;;;21.60;67.80;;;;;;5028780;28;20041;-66
2021/06/30 08:12:20;;;;;;;8.00;2.30;;;21.60;67.90;;;;;;5028054;28;20025;-67
2021/06/30 08:14:46;;;;;;;4.93;2.33;;;21.50;68.90;;;;;;5022797;28;20115;-70
2021/06/30 08:17:11;;;;;;;6.13;2.28;;;21.40;68.70;;;;;;5024069;28;20029;-69
2021/06/30 08:19:37;;;;;;;9.60;3.80;;;21.40;68.60;;;;;;5025270;28;20038;-69
2021/06/30 08:22:03;;;;;;;6.00;3.67;;;21.40;68.30;;;;;;5008335;28;20040;-68
2021/06/30 08:24:29;;;;;;;5.88;3.80;;;21.40;68.30;;;;;;5028558;28;20560;-69
2021/06/30 08:26:55;;;;;;;8.13;4.82;;;21.50;68.70;;;;;;5029068;28;20021;-67
2021/06/30 08:29:23;;;;;;;6.40;3.88;;;21.70;67.80;;;;;;5029018;28;20021;-65
2021/06/30 08:31:49;;;;;;;8.90;4.25;;;21.60;67.60;;;;;;5028380;28;20053;-69
2021/06/30 08:34:14;;;;;;;8.95;4.68;;;21.70;67.70;;;;;;5030341;28;20482;-69
2021/06/30 08:36:40;;;;;;;8.60;5.70;;;21.70;67.90;;;;;;5032552;28;20036;-66
2021/06/30 08:39:08;;;;;;;7.45;4.72;;;21.60;68.10;;;;;;5030057;28;20049;-66
2021/06/30 08:41:34;;;;;;;9.48;5.90;;;21.60;68.00;;;;;;5032263;28;20477;-66
2021/06/30 08:43:59;;;;;;;9.13;5.72;;;21.60;67.80;;;;;;5027667;28;20056;-64
2021/06/30 08:46:26;;;;;;;9.57;6.38;;;21.60;67.70;;;;;;5028978;28;20060;-68
2021/06/30 08:48:55;;;;;;;11.38;6.28;;;21.60;67.60;;;;;;5030602;28;20021;-69
2021/06/30 08:51:23;;;;;;;10.27;6.13;;;21.70;67.40;;;;;;5031788;28;20029;-68
2021/06/30 08:53:52;;;;;;;9.45;6.35;;;21.70;67.10;;;;;;5014336;28;20117;-69
2021/06/30 08:56:30;;;;;;;8.85;5.72;;;21.60;67.00;;;;;;5030433;28;20025;-69
2021/06/30 08:58:57;;;;;;;9.02;5.78;;;21.70;67.00;;;;;;5031984;28;20041;-67
2021/06/30 09:01:23;;;;;;;9.25;5.45;;;21.70;66.70;;;;;;5030360;28;20028;-67
2021/06/30 09:03:50;;;;;;;10.25;5.93;;;21.60;66.70;;;;;;5030489;28;20116;-69
2021/06/30 09:06:17;;;;;;;10.32;5.47;;;21.60;66.40;;;;;;5011045;28;20029;-71
2021/06/30 09:08:43;;;;;;;12.80;6.05;;;21.70;66.20;;;;;;5032487;28;20025;-68
2021/06/30 09:11:18;;;;;;;8.75;5.00;;;21.70;66.30;;;;;;5026082;28;20025;-70
2021/06/30 09:13:46;;;;;;;9.05;6.80;;;22.00;65.70;;;;;;5030010;28;20021;-67
2021/06/30 09:16:12;;;;;;;8.88;6.45;;;22.00;65.40;;;;;;5029108;28;20504;-67
2021/06/30 09:18:39;;;;;;;8.82;6.25;;;21.90;65.30;;;;;;5031128;28;20544;-66
2021/06/30 09:21:26;;;;;;;10.93;7.20;;;21.90;65.00;;;;;;5032302;28;20029;-67
2021/06/30 09:24:07;;;;;;;10.27;7.22;;;22.00;65.10;;;;;;5030900;28;20121;-69
2021/06/30 09:26:35;;;;;;;10.65;7.68;;;22.00;64.80;;;;;;5028747;28;20022;-69
2021/06/30 09:29:06;;;;;;;14.05;9.15;;;22.10;64.70;;;;;;5031675;28;20060;-67
2021/06/30 09:31:33;;;;;;;9.48;7.22;;;22.10;64.60;;;;;;5011344;28;20029;-68
2021/06/30 09:33:59;;;;;;;8.90;6.03;;;22.20;64.30;;;;;;5032713;28;20026;-68
2021/06/30 09:36:30;;;;;;;8.88;6.13;;;22.40;63.90;;;;;;5026251;28;20021;-68
2021/06/30 09:39:06;;;;;;;7.72;5.60;;;22.40;63.70;;;;;;5016101;28;20069;-68
2021/06/30 09:41:33;;;;;;;9.10;5.40;;;22.50;63.50;;;;;;5034127;28;20028;-68
2021/06/30 09:44:05;;;;;;;10.38;5.32;;;22.50;63.30;;;;;;5012210;28;20113;-68
2021/06/30 09:46:31;;;;;;;9.88;5.82;;;22.60;63.20;;;;;;5014530;28;20490;-69
2021/06/30 09:48:59;;;;;;;8.93;5.95;;;22.70;63.10;;;;;;5015271;28;20026;-65
2021/06/30 09:51:25;;;;;;;8.60;5.47;;;22.70;63.00;;;;;;5014759;28;20034;-66
2021/06/30 09:53:51;;;;;;;8.38;6.07;;;22.70;63.00;;;;;;5014270;28;20045;-67
2021/06/30 09:56:34;;;;;;;8.32;5.50;;;22.70;63.00;;;;;;5014482;28;20558;-66
2021/06/30 09:59:08;;;;;;;9.73;5.93;;;22.80;63.00;;;;;;5014162;28;20429;-67
2021/06/30 10:01:34;;;;;;;10.00;5.53;;;22.80;62.90;;;;;;5013949;28;20026;-65
2021/06/30 10:04:00;;;;;;;7.75;5.20;;;22.80;62.80;;;;;;5014078;28;20465;-65
2021/06/30 10:06:27;;;;;;;13.85;5.90;;;22.90;62.80;;;;;;5014345;28;20540;-68
2021/06/30 10:08:54;;;;;;;7.70;5.22;;;22.90;62.80;;;;;;5014227;28;20026;-66
2021/06/30 10:11:19;;;;;;;9.43;6.25;;;22.90;62.70;;;;;;5014574;28;20080;-66
2021/06/30 10:13:45;;;;;;;8.80;5.90;;;22.90;62.70;;;;;;5022860;28;20483;-67
2021/06/30 10:16:12;;;;;;;7.97;5.43;;;22.90;62.60;;;;;;5026099;28;20489;-67
2021/06/30 10:18:38;;;;;;;7.90;6.00;;;23.00;62.50;;;;;;5024424;28;20167;-66
2021/06/30 10:21:04;;;;;;;9.82;6.10;;;23.00;62.50;;;;;;5036172;28;20344;-67
2021/06/30 10:23:29;;;;;;;10.70;5.47;;;23.00;62.50;;;;;;5030349;28;20072;-66
2021/06/30 10:25:55;;;;;;;9.80;6.72;;;23.00;62.50;;;;;;5027009;28;20033;-66
2021/06/30 10:28:21;;;;;;;9.13;6.20;;;23.00;62.50;;;;;;5025425;28;20052;-66
2021/06/30 10:30:52;;;;;;;10.45;5.55;;;23.00;62.40;;;;;;5027819;28;20029;-67
2021/06/30 10:33:37;;;;;;;7.47;5.43;;;23.10;62.40;;;;;;5030080;28;20422;-69
2021/06/30 10:36:03;;;;;;;9.13;6.25;;;23.10;62.40;;;;;;5022668;28;20033;-66
2021/06/30 10:39:05;;;;;;;9.02;6.10;;;23.10;62.30;;;;;;5028629;28;20032;-66
2021/06/30 10:41:53;;;;;;;8.70;5.88;;;23.10;62.30;;;;;;5026658;28;20112;-66
2021/06/30 10:44:22;;;;;;;7.97;5.82;;;23.10;62.30;;;;;;5026712;28;20041;-66
2021/06/30 10:46:48;;;;;;;8.73;5.55;;;23.10;62.30;;;;;;5024116;28;20050;-66
2021/06/30 10:49:13;;;;;;;9.95;6.10;;;23.10;62.30;;;;;;5026463;28;20431;-68
2021/06/30 10:51:45;;;;;;;9.35;5.90;;;23.20;62.30;;;;;;5024098;28;20037;-66
2021/06/30 10:54:32;;;;;;;8.13;6.00;;;23.10;62.20;;;;;;5026402;28;20060;-65
2021/06/30 10:57:24;;;;;;;9.35;6.03;;;23.20;62.20;;;;;;5028931;28;20083;-68
2021/06/30 11:00:09;;;;;;;8.23;5.53;;;23.20;62.20;;;;;;5007376;28;20394;-66
2021/06/30 11:02:35;;;;;;;9.13;5.60;;;23.20;62.20;;;;;;5013444;28;20600;-65
2021/06/30 11:05:13;;;;;;;8.70;5.18;;;23.20;62.30;;;;;;5029849;28;20128;-65
2021/06/30 11:07:39;;;;;;;8.98;5.30;;;23.20;62.30;;;;;;5028877;28;20052;-65
2021/06/30 11:10:18;;;;;;;7.95;5.95;;;23.20;62.40;;;;;;5028362;28;20058;-65
2021/06/30 11:12:54;;;;;;;8.60;5.20;;;23.20;62.30;;;;;;5027422;28;20032;-64
2021/06/30 11:15:38;;;;;;;8.40;5.88;;;23.20;62.40;;;;;;5027200;28;20022;-65
2021/06/30 11:18:13;;;;;;;7.88;5.18;;;23.10;62.50;;;;;;5028900;28;20382;-70
2021/06/30 11:20:46;;;;;;;8.63;5.70;;;23.10;62.50;;;;;;5027141;28;20033;-66
2021/06/30 11:23:29;;;;;;;8.50;5.57;;;23.20;62.40;;;;;;5030257;28;20036;-66
2021/06/30 11:26:16;;;;;;;9.60;5.47;;;23.10;62.40;;;;;;5029835;28;20037;-65
2021/06/30 11:28:41;;;;;;;6.97;5.30;;;23.20;62.50;;;;;;5031259;28;20490;-66
2021/06/30 11:31:25;;;;;;;9.00;5.25;;;23.20;62.40;;;;;;5031898;28;20043;-65
2021/06/30 11:34:23;;;;;;;7.90;4.93;;;23.20;62.40;;;;;;5029814;28;20036;-65
2021/06/30 11:36:49;;;;;;;7.57;4.72;;;23.20;62.30;;;;;;5020676;28;20040;-64
2021/06/30 11:39:18;;;;;;;8.60;5.50;;;23.20;62.30;;;;;;5025897;28;20029;-66
2021/06/30 11:41:47;;;;;;;8.25;4.85;;;23.20;62.20;;;;;;5027585;28;20125;-67
2021/06/30 11:44:14;;;;;;;8.55;5.25;;;23.20;62.20;;;;;;5027869;28;20099;-66
2021/06/30 11:46:41;;;;;;;9.02;5.13;;;23.20;62.20;;;;;;5029138;28;20567;-66
2021/06/30 11:49:10;;;;;;;6.82;4.30;;;23.20;62.20;;;;;;5023969;28;20025;-64
2021/06/30 11:51:36;;;;;;;7.65;5.10;;;23.20;62.10;;;;;;5021442;28;20029;-73
2021/06/30 11:54:02;;;;;;;9.23;4.55;;;23.20;62.20;;;;;;5027917;28;20040;-71
2021/06/30 11:56:37;;;;;;;10.88;4.90;;;23.20;62.40;;;;;;5029490;28;20116;-67
2021/06/30 11:59:10;;;;;;;8.98;5.43;;;23.20;62.60;;;;;;5025092;28;20678;-69
2021/06/30 12:01:37;;;;;;;7.75;3.80;;;23.20;62.60;;;;;;5022894;28;20041;-65
2021/06/30 12:04:09;;;;;;;5.68;3.25;;;22.90;62.60;;;;;;5022612;28;20030;-68
2021/06/30 12:06:35;;;;;;;6.82;3.72;;;22.80;63.40;;;;;;5026245;28;20078;-67
2021/06/30 12:09:22;;;;;;;7.38;3.63;;;23.00;63.10;;;;;;5027871;28;20033;-67
2021/06/30 12:11:52;;;;;;;6.75;3.95;;;23.20;62.60;;;;;;5028620;28;20169;-67
2021/06/30 12:14:23;;;;;;;6.82;4.03;;;23.20;62.40;;;;;;5024158;28;20034;-65
2021/06/30 12:16:55;;;;;;;5.68;3.63;;;23.20;62.50;;;;;;5029110;28;20112;-66
2021/06/30 12:19:47;;;;;;;9.75;4.07;;;23.30;62.50;;;;;;5024342;28;20030;-65
2021/06/30 12:22:22;;;;;;;7.05;3.75;;;23.30;62.40;;;;;;5024833;28;20021;-66
2021/06/30 12:24:54;;;;;;;6.65;3.78;;;23.30;62.30;;;;;;5010093;28;20037;-66
2021/06/30 12:27:20;;;;;;;6.10;3.47;;;23.30;62.20;;;;;;5027463;28;20057;-66
2021/06/30 12:29:54;;;;;;;7.22;3.30;;;23.30;62.30;;;;;;5027890;28;20560;-66
2021/06/30 12:32:20;;;;;;;;;;;23.30;62.30;;;;;;5030227;28;20136;-66
2021/06/30 12:34:45;;;;;;;6.60;3.67;;;23.40;62.20;;;;;;5026386;28;19920;-65
2021/06/30 12:37:23;;;;;;;7.00;3.53;;;23.30;62.30;;;;;;5009432;28;20029;-65
2021/06/30 12:39:58;;;;;;;14.23;3.63;;;23.30;62.30;;;;;;5026441;28;20080;-65
2021/06/30 12:42:41;;;;;;;5.93;3.58;;;23.30;62.30;;;;;;5027792;28;20348;-66
2021/06/30 12:45:07;;;;;;;6.50;3.53;;;23.30;62.50;;;;;;5024352;28;20084;-66
2021/06/30 12:47:33;;;;;;;6.28;3.30;;;23.30;62.40;;;;;;5029989;28;20037;-67
2021/06/30 12:50:06;;;;;;;5.60;3.30;;;23.30;62.40;;;;;;5032479;28;20079;-66